createdAt,value
2022-11-01T00:01:02.424Z,15.50
2022-11-01T00:05:03.722Z,13.23
2022-11-01T00:09:03.838Z,10.03
2022-11-01T00:13:06.598Z,10.80
2022-11-01T00:17:06.787Z,13.40
2022-11-01T00:21:07.614Z,12.17
2022-11-01T00:25:08.619Z,12.80
2022-11-01T00:29:11.573Z,11.70
2022-11-01T00:33:12.054Z,12.53
2022-11-01T00:37:12.220Z,13.83
2022-11-01T00:41:13.067Z,16.10
2022-11-01T00:45:16.001Z,15.20
2022-11-01T00:49:16.374Z,14.00
2022-11-01T00:53:16.725Z,13.47
2022-11-01T00:57:16.897Z,13.93
2022-11-01T01:01:19.843Z,13.47
2022-11-01T01:05:21.065Z,13.00
2022-11-01T01:09:21.131Z,13.40
2022-11-01T01:13:21.809Z,12.13
2022-11-01T01:17:26.681Z,13.10
2022-11-01T01:21:28.831Z,11.93
2022-11-01T01:25:29.150Z,14.83
2022-11-01T01:29:29.692Z,15.03
2022-11-01T01:33:32.466Z,13.90
2022-11-01T01:37:32.659Z,13.80
2022-11-01T01:41:45.193Z,13.83
2022-11-01T01:45:45.992Z,12.30
2022-11-01T01:49:49.916Z,12.67
2022-11-01T01:53:54.374Z,12.43
2022-11-01T01:57:57.333Z,12.90
2022-11-01T02:01:57.729Z,13.07
2022-11-01T02:06:09.657Z,12.10
2022-11-01T02:10:12.232Z,13.40
2022-11-01T02:14:12.741Z,13.27
2022-11-01T02:18:27.507Z,12.97
2022-11-01T02:22:58.692Z,12.43
2022-11-01T02:27:16.270Z,11.53
2022-11-01T02:31:47.984Z,12.50
2022-11-01T02:36:07.862Z,12.97
2022-11-01T02:40:17.550Z,13.70
2022-11-01T02:44:23.209Z,12.77
2022-11-01T02:48:27.289Z,13.80
2022-11-01T02:52:34.821Z,13.37
2022-11-01T02:56:35.097Z,13.10
2022-11-01T03:00:38.236Z,13.83
2022-11-01T03:04:39.159Z,13.50
2022-11-01T03:08:48.470Z,15.43
2022-11-01T03:13:01.936Z,15.43
2022-11-01T03:17:09.981Z,13.40
2022-11-01T03:21:19.736Z,13.20
2022-11-01T03:25:44.513Z,13.30
2022-11-01T03:29:50.072Z,12.13
2022-11-01T03:33:56.833Z,11.57
2022-11-01T03:38:04.666Z,13.43
2022-11-01T03:42:14.698Z,12.77
2022-11-01T03:46:17.489Z,13.50
2022-11-01T03:50:20.808Z,13.00
2022-11-01T03:54:20.888Z,11.60
2022-11-01T03:58:23.660Z,13.23
2022-11-01T04:02:23.751Z,12.60
2022-11-01T04:06:23.876Z,11.60
2022-11-01T04:10:26.183Z,11.63
2022-11-01T04:14:41.405Z,13.33
2022-11-01T04:19:08.802Z,13.93
2022-11-01T04:23:10.340Z,12.40
2022-11-01T04:27:10.512Z,18.50
2022-11-01T04:31:13.896Z,16.73
2022-11-01T04:35:14.244Z,15.53
2022-11-01T04:39:14.476Z,15.27
2022-11-01T04:43:15.390Z,14.60
2022-11-01T04:47:18.157Z,18.07
2022-11-01T04:51:18.457Z,14.80
2022-11-01T04:55:18.745Z,16.33
2022-11-01T04:59:18.895Z,18.10
2022-11-01T05:03:21.629Z,16.37
2022-11-01T05:07:22.755Z,19.77
2022-11-01T05:11:25.828Z,20.33
2022-11-01T05:15:26.484Z,19.27
2022-11-01T05:19:29.463Z,20.53
2022-11-01T05:23:29.784Z,25.27
2022-11-01T05:27:29.838Z,20.50
2022-11-01T05:31:30.024Z,21.87
2022-11-01T05:35:33.584Z,18.20
2022-11-01T05:39:33.692Z,19.10
2022-11-01T05:43:33.768Z,19.57
2022-11-01T05:47:36.107Z,18.53
2022-11-01T05:51:39.234Z,18.00
2022-11-01T05:55:40.372Z,18.17
2022-11-01T05:59:40.719Z,19.70
2022-11-01T06:03:40.960Z,19.13
2022-11-01T06:07:43.716Z,20.63
2022-11-01T06:11:43.814Z,21.90
2022-11-01T06:15:44.159Z,20.47
2022-11-01T06:19:44.285Z,16.07
2022-11-01T06:23:50.804Z,17.33
2022-11-01T06:27:51.055Z,22.23
2022-11-01T06:31:51.187Z,21.07
2022-11-01T06:35:51.320Z,21.27
2022-11-01T06:39:54.072Z,18.20
2022-11-01T06:43:54.218Z,20.97
2022-11-01T06:47:54.513Z,20.93
2022-11-01T06:51:54.644Z,20.10
2022-11-01T06:55:57.412Z,19.03
2022-11-01T06:59:58.451Z,19.50
2022-11-01T07:03:58.731Z,18.67
2022-11-01T07:07:59.233Z,19.70
2022-11-01T07:12:02.077Z,19.67
2022-11-01T07:16:04.819Z,20.10
2022-11-01T07:20:04.970Z,19.90
2022-11-01T07:24:05.477Z,19.80
2022-11-01T07:28:08.721Z,21.30
2022-11-01T07:32:09.405Z,19.50
2022-11-01T07:36:11.209Z,17.53
2022-11-01T07:40:13.408Z,17.80
2022-11-01T07:44:16.139Z,16.00
2022-11-01T07:48:19.330Z,16.10
2022-11-01T07:52:19.850Z,15.60
2022-11-01T07:56:21.783Z,14.90
2022-11-01T08:00:25.401Z,15.10
2022-11-01T08:04:25.537Z,14.30
2022-11-01T08:08:25.612Z,15.97
2022-11-01T08:12:25.721Z,15.47
2022-11-01T08:16:28.481Z,15.93
2022-11-01T08:20:30.204Z,16.90
2022-11-01T08:24:30.639Z,16.07
2022-11-01T08:28:30.711Z,15.00
2022-11-01T08:32:33.648Z,13.90
2022-11-01T08:36:34.232Z,12.30
2022-11-01T08:40:36.132Z,13.23
2022-11-01T08:44:36.314Z,12.40
2022-11-01T08:48:39.097Z,13.10
2022-11-01T08:52:43.245Z,12.00
2022-11-01T08:56:43.478Z,10.73
2022-11-01T09:00:43.668Z,12.20
2022-11-01T09:04:46.356Z,11.18
2022-11-01T09:08:46.423Z,10.98
2022-11-01T09:12:46.887Z,10.40
2022-11-01T09:16:47.042Z,10.75
2022-11-01T09:20:57.197Z,9.45
2022-11-01T09:24:58.784Z,10.20
2022-11-01T09:29:00.700Z,9.77
2022-11-01T09:33:01.234Z,9.35
2022-11-01T09:37:04.956Z,8.77
2022-11-01T09:41:10.061Z,8.75
2022-11-01T09:45:19.913Z,7.38
2022-11-01T09:49:26.853Z,8.10
2022-11-01T09:53:32.588Z,7.82
2022-11-01T09:57:43.696Z,8.48
2022-11-01T10:01:58.991Z,8.38
2022-11-01T10:06:11.568Z,7.63
2022-11-01T10:10:36.775Z,7.47
2022-11-01T10:15:00.913Z,7.28
2022-11-01T10:19:12.022Z,6.85
2022-11-01T10:23:19.259Z,6.30
2022-11-01T10:27:36.165Z,6.88
2022-11-01T10:31:46.731Z,6.72
2022-11-01T10:35:53.271Z,6.60
2022-11-01T10:40:02.854Z,7.05
2022-11-01T10:44:18.542Z,7.10
2022-11-01T10:48:38.447Z,6.72
2022-11-01T10:52:52.503Z,7.03
2022-11-01T10:56:57.077Z,6.30
2022-11-01T11:01:00.319Z,6.13
2022-11-01T11:05:00.976Z,5.45
2022-11-01T11:09:01.513Z,5.35
2022-11-01T11:13:08.363Z,5.78
2022-11-01T11:17:21.166Z,5.78
2022-11-01T11:21:25.612Z,5.70
2022-11-01T11:25:38.916Z,5.47
2022-11-01T11:29:48.622Z,5.25
2022-11-01T11:33:59.938Z,5.10
2022-11-01T11:38:02.726Z,5.35
2022-11-01T11:42:20.528Z,5.80
2022-11-01T11:46:24.707Z,5.43
2022-11-01T11:50:37.954Z,5.50
2022-11-01T11:54:39.280Z,4.47
2022-11-01T11:58:45.184Z,4.60
2022-11-01T12:02:45.479Z,4.43
2022-11-01T12:06:49.683Z,5.60
2022-11-01T12:10:50.043Z,5.13
2022-11-01T12:14:50.926Z,3.97
2022-11-01T12:18:58.030Z,2.25
2022-11-01T12:23:10.699Z,1.83
2022-11-01T12:27:21.264Z,1.55
2022-11-01T12:31:30.278Z,1.30
2022-11-01T12:35:35.661Z,1.67
2022-11-01T12:39:53.394Z,1.75
2022-11-01T12:44:09.641Z,2.00
2022-11-01T12:48:16.929Z,2.10
2022-11-01T12:52:29.744Z,2.22
2022-11-01T12:56:32.563Z,1.73
2022-11-01T13:00:50.664Z,2.80
2022-11-01T13:05:01.875Z,2.05
2022-11-01T13:09:11.848Z,2.70
2022-11-01T13:13:27.504Z,1.80
2022-11-01T13:17:37.938Z,1.73
2022-11-01T13:21:49.672Z,1.90
2022-11-01T13:26:00.929Z,1.80
2022-11-01T13:30:09.600Z,2.20
2022-11-01T13:34:31.172Z,2.40
2022-11-01T13:38:41.688Z,1.65
2022-11-01T13:42:49.655Z,1.80
2022-11-01T13:47:34.761Z,2.10
2022-11-01T13:51:47.890Z,2.20
2022-11-01T13:55:56.581Z,1.65
2022-11-01T14:00:01.050Z,1.70
2022-11-01T14:04:49.148Z,1.70
2022-11-01T14:08:52.242Z,1.90
2022-11-01T14:13:18.155Z,1.80
2022-11-01T14:18:05.325Z,2.97
2022-11-01T14:22:06.462Z,2.10
2022-11-01T14:26:38.701Z,1.70
2022-11-01T14:30:43.387Z,1.83
2022-11-01T14:34:45.862Z,2.20
2022-11-01T14:38:55.398Z,2.65
2022-11-01T14:43:06.287Z,3.17
2022-11-01T14:47:24.255Z,2.00
2022-11-01T14:51:38.469Z,1.85
2022-11-01T14:55:40.159Z,1.90
2022-11-01T14:59:42.977Z,2.13
2022-11-01T15:03:46.455Z,2.72
2022-11-01T15:07:53.582Z,2.20
2022-11-01T15:11:57.694Z,2.00
2022-11-01T15:16:17.987Z,2.10
2022-11-01T15:20:22.674Z,2.38
2022-11-01T15:24:26.569Z,3.20
2022-11-01T15:28:33.696Z,3.80
2022-11-01T15:32:37.949Z,3.13
2022-11-01T15:36:40.443Z,3.05
2022-11-01T15:40:41.900Z,4.28
2022-11-01T15:44:46.078Z,3.67
2022-11-01T15:48:51.692Z,2.88
2022-11-01T15:52:52.088Z,2.50
2022-11-01T15:56:59.261Z,3.08
2022-11-01T16:01:05.639Z,4.60
2022-11-01T16:05:10.559Z,3.70
2022-11-01T16:09:21.966Z,4.35
2022-11-01T16:13:23.533Z,4.30
2022-11-01T16:17:35.181Z,3.80
2022-11-01T16:21:38.694Z,3.70
2022-11-01T16:25:41.274Z,3.80
2022-11-01T16:29:51.978Z,3.38
2022-11-01T16:33:53.727Z,5.70
2022-11-01T16:37:56.352Z,7.00
2022-11-01T16:41:57.621Z,7.03
2022-11-01T16:45:58.563Z,9.73
2022-11-01T16:49:58.795Z,10.38
2022-11-01T16:54:03.430Z,11.20
2022-11-01T16:58:04.000Z,14.60
2022-11-01T17:02:17.198Z,12.20
2022-11-01T17:06:17.638Z,13.40
2022-11-01T17:10:25.629Z,13.00
2022-11-01T17:14:26.546Z,14.52
2022-11-01T17:18:33.113Z,15.18
2022-11-01T17:22:39.194Z,17.33
2022-11-01T17:26:41.952Z,16.65
2022-11-01T17:30:42.230Z,20.17
2022-11-01T17:34:42.361Z,19.75
2022-11-01T17:38:43.202Z,16.65
2022-11-01T17:42:45.946Z,14.23
2022-11-01T17:46:46.059Z,14.63
2022-11-01T17:50:46.778Z,16.00
2022-11-01T17:54:46.940Z,13.75
2022-11-01T17:58:52.221Z,13.60
2022-11-01T18:02:52.557Z,15.83
2022-11-01T18:06:52.626Z,18.20
2022-11-01T18:11:09.195Z,18.40
2022-11-01T18:15:25.535Z,20.40
2022-11-01T18:20:12.375Z,19.13
2022-11-01T18:24:22.638Z,18.53
2022-11-01T18:28:26.665Z,23.50
2022-11-01T18:32:38.617Z,29.03
2022-11-01T18:36:52.408Z,24.13
2022-11-01T18:41:00.542Z,27.93
2022-11-01T18:45:05.360Z,27.77
2022-11-01T18:49:15.500Z,24.93
2022-11-01T18:53:18.367Z,25.83
2022-11-01T18:57:22.179Z,22.80
2022-11-01T19:01:31.642Z,24.80
2022-11-01T19:05:41.678Z,25.93
2022-11-01T19:09:44.106Z,27.63
2022-11-01T19:13:44.562Z,25.40
2022-11-01T19:17:49.199Z,26.87
2022-11-01T19:21:52.142Z,24.50
2022-11-01T19:25:53.822Z,24.63
2022-11-01T19:29:57.996Z,23.40
2022-11-01T19:34:03.406Z,22.67
2022-11-01T19:38:06.671Z,30.07
2022-11-01T19:42:25.115Z,30.37
2022-11-01T19:46:25.284Z,26.30
2022-11-01T19:50:28.547Z,29.40
2022-11-01T19:54:39.005Z,28.77
2022-11-01T19:58:46.734Z,28.77
2022-11-01T20:02:47.091Z,25.33
2022-11-01T20:06:56.077Z,26.87
2022-11-01T20:10:59.006Z,26.27
2022-11-01T20:14:59.352Z,28.77
2022-11-01T20:18:59.604Z,26.87
2022-11-01T20:23:20.371Z,25.40
2022-11-01T20:27:23.411Z,26.43
2022-11-01T20:31:23.821Z,24.57
2022-11-01T20:35:24.085Z,25.90
2022-11-01T20:39:25.307Z,26.10
2022-11-01T20:43:28.314Z,30.23
2022-11-01T20:47:28.379Z,27.50
2022-11-01T20:51:29.741Z,28.20
2022-11-01T20:55:30.471Z,32.43
2022-11-01T20:59:33.276Z,35.07
2022-11-01T21:03:33.392Z,37.10
2022-11-01T21:07:35.674Z,33.93
2022-11-01T21:11:44.304Z,34.90
2022-11-01T21:15:48.913Z,33.73
2022-11-01T21:19:56.086Z,33.03
2022-11-01T21:23:57.498Z,25.80
2022-11-01T21:27:58.378Z,23.70
2022-11-01T21:32:01.741Z,25.23
2022-11-01T21:36:02.263Z,21.67
2022-11-01T21:40:07.567Z,20.03
2022-11-01T21:44:27.432Z,19.17
2022-11-01T21:48:32.365Z,21.10
2022-11-01T21:52:32.505Z,22.57
2022-11-01T21:56:32.597Z,21.43
2022-11-01T22:00:32.758Z,21.27
2022-11-01T22:04:36.250Z,19.23
2022-11-01T22:08:36.384Z,17.43
2022-11-01T22:12:36.654Z,17.53
2022-11-01T22:16:37.678Z,19.63
2022-11-01T22:20:54.539Z,23.30
2022-11-01T22:24:54.632Z,15.93
2022-11-01T22:28:55.102Z,18.73
2022-11-01T22:32:55.429Z,20.27
2022-11-01T22:36:59.185Z,17.90
2022-11-01T22:41:04.117Z,18.07
2022-11-01T22:45:04.477Z,15.33
2022-11-01T22:49:15.250Z,16.77
2022-11-01T22:53:22.650Z,16.50
2022-11-01T22:57:29.892Z,13.27
2022-11-01T23:01:34.377Z,12.97
2022-11-01T23:05:34.939Z,18.20
2022-11-01T23:09:37.802Z,17.93
2022-11-01T23:13:53.109Z,14.07
2022-11-01T23:17:53.204Z,14.60
2022-11-01T23:21:53.385Z,15.03
2022-11-01T23:25:58.448Z,12.63
2022-11-01T23:30:03.606Z,12.83
2022-11-01T23:34:03.692Z,13.73
2022-11-01T23:38:03.843Z,22.87
2022-11-01T23:42:08.688Z,14.97
2022-11-01T23:46:10.452Z,11.20
2022-11-01T23:50:19.268Z,17.43
2022-11-01T23:54:36.559Z,16.83
2022-11-01T23:58:40.983Z,12.90
